sensor_id;sensor_type;location;lat;lon;timestamp;pressure;altitude;pressure_sealevel;temperature;humidity
71964;BME280;59834;52.124;5.422;2023-05-15T00:01:25;101605.69;;;12.45;93.25
71964;BME280;59834;52.124;5.422;2023-05-15T00:03:52;101610.94;;;12.45;93.62
71964;BME280;59834;52.124;5.422;2023-05-15T00:06:20;101603.03;;;12.45;92.95
71964;BME280;59834;52.124;5.422;2023-05-15T00:08:47;101606.97;;;12.38;93.02
71964;BME280;59834;52.124;5.422;2023-05-15T00:11:13;101605.72;;;12.29;93.20
71964;BME280;59834;52.124;5.422;2023-05-15T00:13:40;101598.13;;;12.24;93.50
71964;BME280;59834;52.124;5.422;2023-05-15T00:16:07;101590.31;;;12.23;93.53
71964;BME280;59834;52.124;5.422;2023-05-15T00:18:35;101593.22;;;12.18;94.26
71964;BME280;59834;52.124;5.422;2023-05-15T00:21:02;101586.53;;;12.13;94.59
71964;BME280;59834;52.124;5.422;2023-05-15T00:23:30;101599.66;;;12.13;94.97
71964;BME280;59834;52.124;5.422;2023-05-15T00:25:57;101594.53;;;12.11;95.47
71964;BME280;59834;52.124;5.422;2023-05-15T00:28:26;101590.56;;;12.04;94.84
71964;BME280;59834;52.124;5.422;2023-05-15T00:30:53;101601.06;;;12.04;94.99
71964;BME280;59834;52.124;5.422;2023-05-15T00:33:19;101592.53;;;12.00;94.90
71964;BME280;59834;52.124;5.422;2023-05-15T00:39:10;101593.22;;;11.88;94.95
71964;BME280;59834;52.124;5.422;2023-05-15T00:41:48;101584.03;;;11.79;95.29
71964;BME280;59834;52.124;5.422;2023-05-15T00:44:52;101587.88;;;11.74;94.49
71964;BME280;59834;52.124;5.422;2023-05-15T00:47:48;101596.00;;;11.69;95.26
71964;BME280;59834;52.124;5.422;2023-05-15T00:50:52;101583.22;;;11.63;96.03
71964;BME280;59834;52.124;5.422;2023-05-15T00:53:29;101579.91;;;11.60;96.27
71964;BME280;59834;52.124;5.422;2023-05-15T00:56:07;101574.84;;;11.56;96.50
71964;BME280;59834;52.124;5.422;2023-05-15T00:58:36;101572.50;;;11.52;96.03
71964;BME280;59834;52.124;5.422;2023-05-15T01:01:03;101573.44;;;11.51;96.88
71964;BME280;59834;52.124;5.422;2023-05-15T01:03:33;101569.03;;;11.51;96.69
71964;BME280;59834;52.124;5.422;2023-05-15T01:06:01;101573.59;;;11.48;96.98
71964;BME280;59834;52.124;5.422;2023-05-15T01:08:49;101570.38;;;11.43;96.73
71964;BME280;59834;52.124;5.422;2023-05-15T01:11:17;101577.50;;;11.41;96.80
71964;BME280;59834;52.124;5.422;2023-05-15T01:13:44;101572.31;;;11.39;97.44
71964;BME280;59834;52.124;5.422;2023-05-15T01:16:10;101572.59;;;11.35;97.12
71964;BME280;59834;52.124;5.422;2023-05-15T01:18:38;101570.13;;;11.31;97.35
71964;BME280;59834;52.124;5.422;2023-05-15T01:29:13;101569.28;;;11.15;98.04
71964;BME280;59834;52.124;5.422;2023-05-15T01:31:56;101556.50;;;11.09;98.04
71964;BME280;59834;52.124;5.422;2023-05-15T01:34:31;101555.50;;;11.12;99.10
71964;BME280;59834;52.124;5.422;2023-05-15T01:37:15;101558.00;;;11.13;99.07
71964;BME280;59834;52.124;5.422;2023-05-15T01:39:44;101549.41;;;11.11;98.59
71964;BME280;59834;52.124;5.422;2023-05-15T01:42:16;101554.03;;;11.06;98.67
71964;BME280;59834;52.124;5.422;2023-05-15T01:44:53;101550.84;;;11.01;98.56
71964;BME280;59834;52.124;5.422;2023-05-15T01:47:26;101550.06;;;10.99;99.56
71964;BME280;59834;52.124;5.422;2023-05-15T01:49:54;101557.91;;;10.99;99.62
71964;BME280;59834;52.124;5.422;2023-05-15T01:52:29;101545.75;;;10.98;100.00
71964;BME280;59834;52.124;5.422;2023-05-15T01:54:59;101556.25;;;10.98;100.00
71964;BME280;59834;52.124;5.422;2023-05-15T01:57:27;101547.53;;;10.97;99.78
71964;BME280;59834;52.124;5.422;2023-05-15T01:59:56;101565.72;;;11.00;100.00
71964;BME280;59834;52.124;5.422;2023-05-15T02:02:25;101551.34;;;11.07;99.27
71964;BME280;59834;52.124;5.422;2023-05-15T02:04:53;101553.56;;;11.15;99.30
71964;BME280;59834;52.124;5.422;2023-05-15T02:07:20;101563.19;;;11.15;98.97
71964;BME280;59834;52.124;5.422;2023-05-15T02:09:50;101566.75;;;11.14;98.77
71964;BME280;59834;52.124;5.422;2023-05-15T02:12:20;101568.25;;;11.18;98.40
71964;BME280;59834;52.124;5.422;2023-05-15T02:14:48;101559.47;;;11.19;98.35
71964;BME280;59834;52.124;5.422;2023-05-15T02:17:16;101557.69;;;11.19;98.31
71964;BME280;59834;52.124;5.422;2023-05-15T02:19:44;101558.63;;;11.18;98.27
71964;BME280;59834;52.124;5.422;2023-05-15T02:22:10;101567.44;;;11.17;98.91
71964;BME280;59834;52.124;5.422;2023-05-15T02:24:38;101561.25;;;11.18;99.45
71964;BME280;59834;52.124;5.422;2023-05-15T02:27:21;101570.03;;;11.17;99.43
71964;BME280;59834;52.124;5.422;2023-05-15T02:32:51;101562.94;;;11.19;99.28
71964;BME280;59834;52.124;5.422;2023-05-15T02:38:14;101563.69;;;11.21;99.87
71964;BME280;59834;52.124;5.422;2023-05-15T02:40:44;101560.25;;;11.21;99.56
71964;BME280;59834;52.124;5.422;2023-05-15T02:43:14;101553.22;;;11.21;98.94
71964;BME280;59834;52.124;5.422;2023-05-15T02:45:44;101562.88;;;11.21;99.51
71964;BME280;59834;52.124;5.422;2023-05-15T02:48:12;101555.84;;;11.21;99.46
71964;BME280;59834;52.124;5.422;2023-05-15T02:50:40;101561.84;;;11.23;99.37
71964;BME280;59834;52.124;5.422;2023-05-15T02:53:10;101554.91;;;11.22;99.38
71964;BME280;59834;52.124;5.422;2023-05-15T02:55:40;101555.16;;;11.18;99.66
71964;BME280;59834;52.124;5.422;2023-05-15T02:58:07;101557.69;;;11.19;99.52
71964;BME280;59834;52.124;5.422;2023-05-15T03:00:33;101554.38;;;11.16;99.87
71964;BME280;59834;52.124;5.422;2023-05-15T03:03:00;101556.59;;;11.07;99.67
71964;BME280;59834;52.124;5.422;2023-05-15T03:05:28;101546.19;;;11.06;99.84
71964;BME280;59834;52.124;5.422;2023-05-15T03:07:56;101543.97;;;10.98;100.00
71964;BME280;59834;52.124;5.422;2023-05-15T03:10:22;101547.78;;;10.93;100.00
71964;BME280;59834;52.124;5.422;2023-05-15T03:12:49;101551.31;;;10.92;100.00
71964;BME280;59834;52.124;5.422;2023-05-15T03:15:16;101551.41;;;10.90;100.00
71964;BME280;59834;52.124;5.422;2023-05-15T03:17:43;101549.63;;;10.91;100.00
71964;BME280;59834;52.124;5.422;2023-05-15T03:20:11;101551.47;;;10.89;99.92
71964;BME280;59834;52.124;5.422;2023-05-15T03:22:40;101547.50;;;10.81;100.00
71964;BME280;59834;52.124;5.422;2023-05-15T03:25:09;101551.97;;;10.79;100.00
71964;BME280;59834;52.124;5.422;2023-05-15T03:27:37;101550.13;;;10.81;100.00
71964;BME280;59834;52.124;5.422;2023-05-15T03:30:04;101544.88;;;10.81;99.70
71964;BME280;59834;52.124;5.422;2023-05-15T03:32:31;101541.50;;;10.79;100.00
71964;BME280;59834;52.124;5.422;2023-05-15T03:34:58;101539.66;;;10.81;100.00
71964;BME280;59834;52.124;5.422;2023-05-15T03:37:28;101540.50;;;10.82;100.00
71964;BME280;59834;52.124;5.422;2023-05-15T03:39:55;101545.03;;;10.78;100.00
71964;BME280;59834;52.124;5.422;2023-05-15T03:42:24;101543.28;;;10.79;100.00
71964;BME280;59834;52.124;5.422;2023-05-15T03:44:51;101544.03;;;10.81;99.67
71964;BME280;59834;52.124;5.422;2023-05-15T03:47:17;101539.66;;;10.81;99.41
71964;BME280;59834;52.124;5.422;2023-05-15T03:49:47;101528.34;;;10.81;99.39
71964;BME280;59834;52.124;5.422;2023-05-15T03:52:14;101527.66;;;10.77;99.49
71964;BME280;59834;52.124;5.422;2023-05-15T03:54:41;101535.34;;;10.80;99.83
71964;BME280;59834;52.124;5.422;2023-05-15T03:57:08;101537.13;;;10.80;99.60
71964;BME280;59834;52.124;5.422;2023-05-15T03:59:34;101531.78;;;10.81;99.81
71964;BME280;59834;52.124;5.422;2023-05-15T04:02:01;101532.72;;;10.80;99.74
71964;BME280;59834;52.124;5.422;2023-05-15T04:04:31;101551.97;;;10.79;99.51
71964;BME280;59834;52.124;5.422;2023-05-15T04:06:57;101553.84;;;10.77;99.87
71964;BME280;59834;52.124;5.422;2023-05-15T04:09:25;101558.97;;;10.79;99.09
71964;BME280;59834;52.124;5.422;2023-05-15T04:11:52;101546.72;;;10.79;99.08
71964;BME280;59834;52.124;5.422;2023-05-15T04:14:18;101550.13;;;10.81;98.84
71964;BME280;59834;52.124;5.422;2023-05-15T04:16:45;101546.56;;;10.82;98.49
71964;BME280;59834;52.124;5.422;2023-05-15T04:19:14;101546.41;;;10.85;98.23
71964;BME280;59834;52.124;5.422;2023-05-15T04:21:40;101550.66;;;10.88;98.25
71964;BME280;59834;52.124;5.422;2023-05-15T04:24:07;101547.94;;;10.90;98.12
71964;BME280;59834;52.124;5.422;2023-05-15T04:26:34;101555.03;;;10.88;97.98
71964;BME280;59834;52.124;5.422;2023-05-15T04:29:01;101553.44;;;10.85;97.37
71964;BME280;59834;52.124;5.422;2023-05-15T04:31:30;101551.47;;;10.89;97.60
71964;BME280;59834;52.124;5.422;2023-05-15T04:33:57;101554.09;;;10.89;96.89
71964;BME280;59834;52.124;5.422;2023-05-15T04:36:26;101548.13;;;10.87;96.23
71964;BME280;59834;52.124;5.422;2023-05-15T04:38:53;101550.97;;;10.82;96.42
71964;BME280;59834;52.124;5.422;2023-05-15T04:41:20;101546.19;;;10.90;95.81
71964;BME280;59834;52.124;5.422;2023-05-15T04:43:46;101550.56;;;11.53;94.49
71964;BME280;59834;52.124;5.422;2023-05-15T04:46:13;101553.34;;;11.82;91.83
71964;BME280;59834;52.124;5.422;2023-05-15T04:48:40;101557.38;;;11.57;91.53
71964;BME280;59834;52.124;5.422;2023-05-15T04:51:08;101564.97;;;11.46;91.52
71964;BME280;59834;52.124;5.422;2023-05-15T04:53:38;101565.03;;;11.13;92.17
71964;BME280;59834;52.124;5.422;2023-05-15T04:56:11;101570.28;;;10.97;93.58
71964;BME280;59834;52.124;5.422;2023-05-15T04:58:38;101572.44;;;10.89;93.47
71964;BME280;59834;52.124;5.422;2023-05-15T05:01:05;101570.22;;;10.81;93.30
71964;BME280;59834;52.124;5.422;2023-05-15T05:03:33;101563.47;;;10.77;93.66
71964;BME280;59834;52.124;5.422;2023-05-15T05:05:59;101554.44;;;10.82;94.62
71964;BME280;59834;52.124;5.422;2023-05-15T05:08:26;101565.19;;;10.94;93.96
71964;BME280;59834;52.124;5.422;2023-05-15T05:10:55;101562.69;;;11.08;93.23
71964;BME280;59834;52.124;5.422;2023-05-15T05:13:22;101566.38;;;11.20;92.27
71964;BME280;59834;52.124;5.422;2023-05-15T05:15:50;101566.00;;;11.27;92.03
71964;BME280;59834;52.124;5.422;2023-05-15T05:18:17;101571.97;;;11.29;91.84
71964;BME280;59834;52.124;5.422;2023-05-15T05:20:43;101572.34;;;11.23;92.10
71964;BME280;59834;52.124;5.422;2023-05-15T05:23:10;101571.41;;;11.24;91.85
71964;BME280;59834;52.124;5.422;2023-05-15T05:25:40;101567.25;;;11.20;91.98
71964;BME280;59834;52.124;5.422;2023-05-15T05:28:06;101570.63;;;11.22;91.88
71964;BME280;59834;52.124;5.422;2023-05-15T05:30:33;101566.72;;;11.29;91.33
71964;BME280;59834;52.124;5.422;2023-05-15T05:33:00;101568.25;;;11.49;90.82
71964;BME280;59834;52.124;5.422;2023-05-15T05:35:27;101563.00;;;11.81;88.98
71964;BME280;59834;52.124;5.422;2023-05-15T05:37:53;101554.53;;;12.36;87.57
71964;BME280;59834;52.124;5.422;2023-05-15T05:40:20;101551.66;;;12.41;86.62
71964;BME280;59834;52.124;5.422;2023-05-15T05:42:47;101558.31;;;12.46;85.89
71964;BME280;59834;52.124;5.422;2023-05-15T05:45:17;101553.94;;;12.61;85.30
71964;BME280;59834;52.124;5.422;2023-05-15T05:47:45;101544.91;;;12.94;84.25
71964;BME280;59834;52.124;5.422;2023-05-15T05:50:14;101553.06;;;12.89;83.51
71964;BME280;59834;52.124;5.422;2023-05-15T05:52:40;101560.69;;;12.80;83.24
71964;BME280;59834;52.124;5.422;2023-05-15T05:55:08;101564.88;;;12.54;83.63
71964;BME280;59834;52.124;5.422;2023-05-15T05:57:36;101554.66;;;12.35;84.66
71964;BME280;59834;52.124;5.422;2023-05-15T06:00:03;101563.38;;;12.35;84.82
71964;BME280;59834;52.124;5.422;2023-05-15T06:02:35;101553.47;;;12.55;85.30
71964;BME280;59834;52.124;5.422;2023-05-15T06:05:04;101559.09;;;12.91;83.79
71964;BME280;59834;52.124;5.422;2023-05-15T06:07:33;101549.97;;;13.26;81.47
71964;BME280;59834;52.124;5.422;2023-05-15T06:10:00;101554.28;;;12.84;81.96
71964;BME280;59834;52.124;5.422;2023-05-15T06:12:30;101560.28;;;12.43;83.26
71964;BME280;59834;52.124;5.422;2023-05-15T06:14:57;101545.28;;;12.45;83.68
71964;BME280;59834;52.124;5.422;2023-05-15T06:17:24;101550.00;;;12.68;83.32
71964;BME280;59834;52.124;5.422;2023-05-15T06:19:57;101548.25;;;13.10;81.80
71964;BME280;59834;52.124;5.422;2023-05-15T06:22:26;101545.56;;;13.80;79.87
71964;BME280;59834;52.124;5.422;2023-05-15T06:24:53;101546.59;;;14.81;76.11
71964;BME280;59834;52.124;5.422;2023-05-15T06:27:20;101542.34;;;15.89;71.68
71964;BME280;59834;52.124;5.422;2023-05-15T06:29:46;101538.69;;;16.83;68.20
71964;BME280;59834;52.124;5.422;2023-05-15T06:32:14;101536.53;;;16.88;65.35
71964;BME280;59834;52.124;5.422;2023-05-15T06:34:41;101541.13;;;16.17;67.19
71964;BME280;59834;52.124;5.422;2023-05-15T06:37:07;101539.09;;;16.32;66.59
71964;BME280;59834;52.124;5.422;2023-05-15T06:39:36;101539.25;;;17.32;63.71
71964;BME280;59834;52.124;5.422;2023-05-15T06:42:03;101535.81;;;16.98;63.15
71964;BME280;59834;52.124;5.422;2023-05-15T06:44:31;101542.38;;;16.69;64.72
71964;BME280;59834;52.124;5.422;2023-05-15T06:46:57;101543.56;;;16.32;65.33
71964;BME280;59834;52.124;5.422;2023-05-15T06:49:24;101543.16;;;15.78;67.30
71964;BME280;59834;52.124;5.422;2023-05-15T06:51:51;101551.84;;;15.44;68.88
71964;BME280;59834;52.124;5.422;2023-05-15T06:54:18;101550.78;;;15.46;69.55
71964;BME280;59834;52.124;5.422;2023-05-15T06:56:46;101535.69;;;15.72;67.96
71964;BME280;59834;52.124;5.422;2023-05-15T06:59:12;101543.22;;;15.90;67.47
71964;BME280;59834;52.124;5.422;2023-05-15T07:01:42;101544.75;;;16.27;67.13
71964;BME280;59834;52.124;5.422;2023-05-15T07:04:08;101546.03;;;16.11;67.23
71964;BME280;59834;52.124;5.422;2023-05-15T07:06:38;101546.19;;;15.85;69.49
71964;BME280;59834;52.124;5.422;2023-05-15T07:09:04;101552.22;;;15.98;69.23
71964;BME280;59834;52.124;5.422;2023-05-15T07:11:33;101547.88;;;15.86;67.37
71964;BME280;59834;52.124;5.422;2023-05-15T07:14:08;101539.56;;;16.26;67.11
71964;BME280;59834;52.124;5.422;2023-05-15T07:16:35;101537.09;;;16.47;66.22
71964;BME280;59834;52.124;5.422;2023-05-15T07:19:02;101538.53;;;16.40;66.36
71964;BME280;59834;52.124;5.422;2023-05-15T07:21:29;101538.03;;;16.46;67.05
71964;BME280;59834;52.124;5.422;2023-05-15T07:23:56;101535.31;;;16.70;65.12
71964;BME280;59834;52.124;5.422;2023-05-15T07:26:23;101533.16;;;16.64;65.49
71964;BME280;59834;52.124;5.422;2023-05-15T07:29:01;101535.06;;;16.50;66.12
71964;BME280;59834;52.124;5.422;2023-05-15T07:31:31;101542.16;;;16.61;66.17
71964;BME280;59834;52.124;5.422;2023-05-15T07:33:59;101542.53;;;16.68;64.49
71964;BME280;59834;52.124;5.422;2023-05-15T07:36:29;101539.66;;;16.93;65.14
71964;BME280;59834;52.124;5.422;2023-05-15T07:38:55;101543.13;;;16.60;64.17
71964;BME280;59834;52.124;5.422;2023-05-15T07:41:22;101538.88;;;16.35;64.21
71964;BME280;59834;52.124;5.422;2023-05-15T07:43:51;101538.94;;;16.11;65.83
71964;BME280;59834;52.124;5.422;2023-05-15T07:46:18;101538.34;;;16.19;65.73
71964;BME280;59834;52.124;5.422;2023-05-15T07:48:47;101542.59;;;16.33;65.28
71964;BME280;59834;52.124;5.422;2023-05-15T07:51:14;101545.72;;;16.49;65.87
71964;BME280;59834;52.124;5.422;2023-05-15T07:53:41;101542.94;;;16.28;66.71
71964;BME280;59834;52.124;5.422;2023-05-15T07:56:08;101546.09;;;16.33;66.66
71964;BME280;59834;52.124;5.422;2023-05-15T07:58:37;101533.13;;;16.30;65.50
71964;BME280;59834;52.124;5.422;2023-05-15T08:01:04;101530.03;;;16.01;67.20
71964;BME280;59834;52.124;5.422;2023-05-15T08:03:32;101524.56;;;16.15;67.26
71964;BME280;59834;52.124;5.422;2023-05-15T08:05:59;101529.50;;;16.31;66.63
71964;BME280;59834;52.124;5.422;2023-05-15T08:08:35;101528.69;;;16.42;67.00
71964;BME280;59834;52.124;5.422;2023-05-15T08:11:46;101532.91;;;16.67;64.25
71964;BME280;59834;52.124;5.422;2023-05-15T08:14:14;101531.13;;;16.79;63.95
71964;BME280;59834;52.124;5.422;2023-05-15T08:16:41;101521.84;;;17.07;62.72
71964;BME280;59834;52.124;5.422;2023-05-15T08:19:11;101526.88;;;17.21;63.28
71964;BME280;59834;52.124;5.422;2023-05-15T08:21:38;101534.44;;;17.26;62.70
71964;BME280;59834;52.124;5.422;2023-05-15T08:24:06;101524.53;;;17.39;61.40
71964;BME280;59834;52.124;5.422;2023-05-15T08:26:32;101535.91;;;17.62;59.95
71964;BME280;59834;52.124;5.422;2023-05-15T08:28:59;101531.53;;;17.72;60.19
71964;BME280;59834;52.124;5.422;2023-05-15T08:31:27;101533.97;;;17.64;60.46
71964;BME280;59834;52.124;5.422;2023-05-15T08:33:55;101535.63;;;17.76;59.36
71964;BME280;59834;52.124;5.422;2023-05-15T08:36:22;101526.34;;;17.82;60.44
71964;BME280;59834;52.124;5.422;2023-05-15T08:38:49;101535.66;;;17.65;59.14
71964;BME280;59834;52.124;5.422;2023-05-15T08:41:27;101531.69;;;17.59;58.76
71964;BME280;59834;52.124;5.422;2023-05-15T08:44:09;101533.31;;;17.39;60.29
71964;BME280;59834;52.124;5.422;2023-05-15T08:46:37;101527.34;;;17.26;59.56
71964;BME280;59834;52.124;5.422;2023-05-15T08:49:19;101524.75;;;17.04;60.89
71964;BME280;59834;52.124;5.422;2023-05-15T08:51:52;101526.44;;;17.05;60.81
71964;BME280;59834;52.124;5.422;2023-05-15T08:54:19;101522.81;;;17.17;60.49
71964;BME280;59834;52.124;5.422;2023-05-15T08:56:51;101531.69;;;17.27;61.41
71964;BME280;59834;52.124;5.422;2023-05-15T08:59:19;101532.06;;;17.11;60.59
71964;BME280;59834;52.124;5.422;2023-05-15T09:01:46;101531.00;;;17.14;60.74
71964;BME280;59834;52.124;5.422;2023-05-15T09:04:16;101523.06;;;17.14;61.16
71964;BME280;59834;52.124;5.422;2023-05-15T09:06:51;101529.97;;;17.37;61.44
71964;BME280;59834;52.124;5.422;2023-05-15T09:09:19;101525.41;;;17.60;60.13
71964;BME280;59834;52.124;5.422;2023-05-15T09:11:47;101527.53;;;17.46;59.56
71964;BME280;59834;52.124;5.422;2023-05-15T09:14:17;101529.69;;;17.52;60.56
71964;BME280;59834;52.124;5.422;2023-05-15T09:16:47;101539.03;;;17.56;60.47
71964;BME280;59834;52.124;5.422;2023-05-15T09:19:19;101538.53;;;17.62;61.62
71964;BME280;59834;52.124;5.422;2023-05-15T09:21:53;101541.69;;;17.56;60.81
71964;BME280;59834;52.124;5.422;2023-05-15T09:24:24;101537.22;;;17.67;60.98
71964;BME280;59834;52.124;5.422;2023-05-15T09:27:07;101529.25;;;17.79;61.04
71964;BME280;59834;52.124;5.422;2023-05-15T09:29:40;101533.78;;;17.88;60.34
71964;BME280;59834;52.124;5.422;2023-05-15T09:32:12;101528.56;;;18.19;60.39
71964;BME280;59834;52.124;5.422;2023-05-15T09:34:43;101525.66;;;18.52;58.61
71964;BME280;59834;52.124;5.422;2023-05-15T09:37:26;101537.91;;;18.23;60.91
71964;BME280;59834;52.124;5.422;2023-05-15T09:40:07;101526.91;;;18.48;61.06
71964;BME280;59834;52.124;5.422;2023-05-15T09:42:35;101537.19;;;18.42;61.37
71964;BME280;59834;52.124;5.422;2023-05-15T09:45:04;101527.03;;;18.47;60.36
71964;BME280;59834;52.124;5.422;2023-05-15T09:47:32;101525.22;;;18.47;59.58
71964;BME280;59834;52.124;5.422;2023-05-15T09:50:00;101534.03;;;18.57;61.23
71964;BME280;59834;52.124;5.422;2023-05-15T09:52:27;101531.91;;;18.42;60.42
71964;BME280;59834;52.124;5.422;2023-05-15T09:54:55;101537.78;;;18.24;62.07
71964;BME280;59834;52.124;5.422;2023-05-15T09:57:22;101534.28;;;18.24;62.77
71964;BME280;59834;52.124;5.422;2023-05-15T09:59:50;101532.50;;;18.24;63.08
71964;BME280;59834;52.124;5.422;2023-05-15T10:02:25;101523.94;;;18.00;63.05
71964;BME280;59834;52.124;5.422;2023-05-15T10:05:00;101532.63;;;17.81;63.17
71964;BME280;59834;52.124;5.422;2023-05-15T10:07:31;101537.13;;;17.47;65.13
71964;BME280;59834;52.124;5.422;2023-05-15T10:09:59;101532.88;;;17.34;65.03
71964;BME280;59834;52.124;5.422;2023-05-15T10:12:28;101536.59;;;17.32;65.21
71964;BME280;59834;52.124;5.422;2023-05-15T10:14:58;101538.19;;;17.12;65.85
71964;BME280;59834;52.124;5.422;2023-05-15T10:17:30;101538.69;;;17.06;66.50
71964;BME280;59834;52.124;5.422;2023-05-15T10:20:01;101537.84;;;17.05;66.39
71964;BME280;59834;52.124;5.422;2023-05-15T10:22:29;101544.94;;;17.05;66.17
71964;BME280;59834;52.124;5.422;2023-05-15T10:25:02;101546.63;;;16.94;67.02
71964;BME280;59834;52.124;5.422;2023-05-15T10:27:34;101553.84;;;16.81;67.06
71964;BME280;59834;52.124;5.422;2023-05-15T10:30:06;101546.41;;;16.75;67.60
71964;BME280;59834;52.124;5.422;2023-05-15T10:32:33;101559.91;;;16.59;67.82
71964;BME280;59834;52.124;5.422;2023-05-15T10:35:02;101555.97;;;16.54;68.56
71964;BME280;59834;52.124;5.422;2023-05-15T10:37:29;101557.66;;;16.55;68.20
71964;BME280;59834;52.124;5.422;2023-05-15T10:39:57;101555.00;;;16.55;68.51
71964;BME280;59834;52.124;5.422;2023-05-15T10:42:25;101552.34;;;16.55;68.08
71964;BME280;59834;52.124;5.422;2023-05-15T10:44:55;101559.53;;;16.41;69.08
71964;BME280;59834;52.124;5.422;2023-05-15T10:47:26;101555.47;;;16.48;70.24
71964;BME280;59834;52.124;5.422;2023-05-15T10:49:53;101554.25;;;16.30;70.20
71964;BME280;59834;52.124;5.422;2023-05-15T10:52:21;101555.91;;;16.20;71.30
71964;BME280;59834;52.124;5.422;2023-05-15T10:54:52;101552.31;;;16.21;70.75
71964;BME280;59834;52.124;5.422;2023-05-15T10:57:21;101551.03;;;16.02;71.03
71964;BME280;59834;52.124;5.422;2023-05-15T10:59:50;101552.00;;;16.01;70.97
71964;BME280;59834;52.124;5.422;2023-05-15T11:02:24;101545.75;;;16.02;70.83
71964;BME280;59834;52.124;5.422;2023-05-15T11:05:01;101558.56;;;15.96;71.35
71964;BME280;59834;52.124;5.422;2023-05-15T11:07:29;101561.59;;;16.02;72.46
71964;BME280;59834;52.124;5.422;2023-05-15T11:09:56;101547.31;;;15.94;72.21
71964;BME280;59834;52.124;5.422;2023-05-15T11:12:24;101541.72;;;16.10;72.61
71964;BME280;59834;52.124;5.422;2023-05-15T11:17:17;101551.97;;;16.37;71.75
71964;BME280;59834;52.124;5.422;2023-05-15T11:22:19;101554.03;;;16.44;70.72
71964;BME280;59834;52.124;5.422;2023-05-15T11:27:40;101553.50;;;16.28;70.70
71964;BME280;59834;52.124;5.422;2023-05-15T11:30:12;101555.66;;;16.23;71.16
71964;BME280;59834;52.124;5.422;2023-05-15T11:35:41;101559.09;;;16.12;71.23
71964;BME280;59834;52.124;5.422;2023-05-15T11:38:13;101551.78;;;16.05;71.78
71964;BME280;59834;52.124;5.422;2023-05-15T11:43:21;101553.31;;;15.72;72.50
71964;BME280;59834;52.124;5.422;2023-05-15T11:45:52;101545.81;;;15.66;72.93
71964;BME280;59834;52.124;5.422;2023-05-15T11:48:24;101535.25;;;15.78;72.49
71964;BME280;59834;52.124;5.422;2023-05-15T11:50:55;101544.97;;;16.13;71.37
71964;BME280;59834;52.124;5.422;2023-05-15T11:53:22;101541.88;;;16.31;71.33
71964;BME280;59834;52.124;5.422;2023-05-15T11:55:51;101542.50;;;16.45;70.49
71964;BME280;59834;52.124;5.422;2023-05-15T11:58:21;101545.72;;;16.49;69.96
71964;BME280;59834;52.124;5.422;2023-05-15T12:00:50;101539.25;;;16.53;69.42
71964;BME280;59834;52.124;5.422;2023-05-15T12:03:31;101538.91;;;16.58;68.96
71964;BME280;59834;52.124;5.422;2023-05-15T12:06:02;101549.47;;;16.69;68.62
71964;BME280;59834;52.124;5.422;2023-05-15T12:08:35;101536.72;;;16.63;69.01
71964;BME280;59834;52.124;5.422;2023-05-15T12:11:04;101532.31;;;16.86;69.54
71964;BME280;59834;52.124;5.422;2023-05-15T12:13:33;101547.59;;;17.05;68.09
71964;BME280;59834;52.124;5.422;2023-05-15T12:16:02;101539.63;;;17.16;68.06
71964;BME280;59834;52.124;5.422;2023-05-15T12:18:30;101543.19;;;17.37;67.03
71964;BME280;59834;52.124;5.422;2023-05-15T12:21:00;101541.94;;;17.53;66.82
71964;BME280;59834;52.124;5.422;2023-05-15T12:23:27;101541.44;;;17.59;65.71
71964;BME280;59834;52.124;5.422;2023-05-15T12:25:58;101528.59;;;17.86;65.62
71964;BME280;59834;52.124;5.422;2023-05-15T12:28:27;101534.94;;;18.16;64.82
71964;BME280;59834;52.124;5.422;2023-05-15T12:30:55;101534.53;;;18.21;63.67
71964;BME280;59834;52.124;5.422;2023-05-15T12:33:22;101531.38;;;18.06;65.01
71964;BME280;59834;52.124;5.422;2023-05-15T12:35:54;101533.09;;;18.37;62.94
71964;BME280;59834;52.124;5.422;2023-05-15T12:38:26;101527.38;;;18.32;63.04
71964;BME280;59834;52.124;5.422;2023-05-15T12:40:57;101524.78;;;18.42;62.89
71964;BME280;59834;52.124;5.422;2023-05-15T12:43:27;101524.06;;;18.71;61.86
71964;BME280;59834;52.124;5.422;2023-05-15T12:45:57;101517.41;;;18.76;61.95
71964;BME280;59834;52.124;5.422;2023-05-15T12:48:30;101523.47;;;18.88;61.18
71964;BME280;59834;52.124;5.422;2023-05-15T12:51:08;101525.19;;;18.68;61.89
71964;BME280;59834;52.124;5.422;2023-05-15T12:53:37;101526.03;;;18.69;60.65
71964;BME280;59834;52.124;5.422;2023-05-15T12:56:06;101524.88;;;18.61;61.76
71964;BME280;59834;52.124;5.422;2023-05-15T12:58:34;101516.50;;;18.66;61.17
71964;BME280;59834;52.124;5.422;2023-05-15T13:01:02;101508.94;;;18.52;61.84
71964;BME280;59834;52.124;5.422;2023-05-15T13:03:29;101513.13;;;18.64;60.89
71964;BME280;59834;52.124;5.422;2023-05-15T13:05:57;101512.28;;;18.84;59.85
71964;BME280;59834;52.124;5.422;2023-05-15T13:08:24;101514.97;;;19.04;60.37
71964;BME280;59834;52.124;5.422;2023-05-15T13:10:58;101513.59;;;18.69;60.75
71964;BME280;59834;52.124;5.422;2023-05-15T13:13:48;101520.00;;;18.36;61.92
71964;BME280;59834;52.124;5.422;2023-05-15T13:16:29;101517.75;;;18.31;62.06
71964;BME280;59834;52.124;5.422;2023-05-15T13:18:58;101520.84;;;18.36;62.04
71964;BME280;59834;52.124;5.422;2023-05-15T13:21:30;101516.25;;;18.69;60.89
71964;BME280;59834;52.124;5.422;2023-05-15T13:23:58;101518.50;;;19.14;59.55
71964;BME280;59834;52.124;5.422;2023-05-15T13:26:25;101516.72;;;19.44;59.04
71964;BME280;59834;52.124;5.422;2023-05-15T13:28:52;101511.97;;;19.38;58.43
71964;BME280;59834;52.124;5.422;2023-05-15T13:31:22;101515.91;;;18.83;60.14
71964;BME280;59834;52.124;5.422;2023-05-15T13:33:49;101521.59;;;18.27;62.17